sensor_id;sensor_type;location;lat;lon;timestamp;P1;durP1;ratioP1;P2;durP2;ratioP2
82255;SDS011;72145;34.434;-117.370;2023-09-18T00:00:16;40.97;;;37.95;;
82255;SDS011;72145;34.434;-117.370;2023-09-18T00:00:49;40.78;;;37.90;;
82255;SDS011;72145;34.434;-117.370;2023-09-18T00:01:23;35.72;;;32.97;;
82255;SDS011;72145;34.434;-117.370;2023-09-18T00:01:57;37.63;;;34.90;;
82255;SDS011;72145;34.434;-117.370;2023-09-18T00:02:30;36.33;;;33.80;;
82255;SDS011;72145;34.434;-117.370;2023-09-18T00:03:03;37.88;;;34.92;;
82255;SDS011;72145;34.434;-117.370;2023-09-18T00:03:37;35.08;;;32.30;;
82255;SDS011;72145;34.434;-117.370;2023-09-18T00:04:10;36.08;;;33.45;;
82255;SDS011;72145;34.434;-117.370;2023-09-18T00:04:43;36.00;;;33.45;;
82255;SDS011;72145;34.434;-117.370;2023-09-18T00:05:17;33.70;;;31.17;;
82255;SDS011;72145;34.434;-117.370;2023-09-18T00:05:51;39.08;;;36.17;;
82255;SDS011;72145;34.434;-117.370;2023-09-18T00:06:24;36.40;;;33.58;;
82255;SDS011;72145;34.434;-117.370;2023-09-18T00:06:58;35.25;;;31.88;;
82255;SDS011;72145;34.434;-117.370;2023-09-18T00:07:31;37.88;;;34.97;;
82255;SDS011;72145;34.434;-117.370;2023-09-18T00:08:04;34.13;;;31.38;;
82255;SDS011;72145;34.434;-117.370;2023-09-18T00:08:40;31.83;;;29.25;;
82255;SDS011;72145;34.434;-117.370;2023-09-18T00:09:20;34.15;;;31.42;;
82255;SDS011;72145;34.434;-117.370;2023-09-18T00:09:56;31.63;;;29.17;;
82255;SDS011;72145;34.434;-117.370;2023-09-18T00:10:31;32.30;;;29.83;;
82255;SDS011;72145;34.434;-117.370;2023-09-18T00:11:07;32.88;;;30.27;;
82255;SDS011;72145;34.434;-117.370;2023-09-18T00:11:47;31.10;;;28.58;;
82255;SDS011;72145;34.434;-117.370;2023-09-18T00:12:25;35.13;;;32.42;;
82255;SDS011;72145;34.434;-117.370;2023-09-18T00:12:58;35.20;;;32.42;;
82255;SDS011;72145;34.434;-117.370;2023-09-18T00:13:31;32.83;;;30.27;;
82255;SDS011;72145;34.434;-117.370;2023-09-18T00:14:10;33.78;;;31.25;;
82255;SDS011;72145;34.434;-117.370;2023-09-18T00:14:43;37.85;;;35.03;;
82255;SDS011;72145;34.434;-117.370;2023-09-18T00:15:20;36.10;;;33.45;;
82255;SDS011;72145;34.434;-117.370;2023-09-18T00:15:56;38.65;;;35.70;;
82255;SDS011;72145;34.434;-117.370;2023-09-18T00:16:32;37.20;;;34.58;;
82255;SDS011;72145;34.434;-117.370;2023-09-18T00:17:25;37.92;;;35.05;;
82255;SDS011;72145;34.434;-117.370;2023-09-18T00:17:59;37.88;;;34.83;;
82255;SDS011;72145;34.434;-117.370;2023-09-18T00:18:33;37.90;;;34.90;;
82255;SDS011;72145;34.434;-117.370;2023-09-18T00:19:06;39.90;;;36.63;;
82255;SDS011;72145;34.434;-117.370;2023-09-18T00:19:40;38.47;;;35.45;;
82255;SDS011;72145;34.434;-117.370;2023-09-18T00:20:13;39.35;;;36.17;;
82255;SDS011;72145;34.434;-117.370;2023-09-18T00:20:49;36.67;;;33.65;;
82255;SDS011;72145;34.434;-117.370;2023-09-18T00:21:27;42.55;;;39.30;;
82255;SDS011;72145;34.434;-117.370;2023-09-18T00:22:02;43.42;;;40.47;;
82255;SDS011;72145;34.434;-117.370;2023-09-18T00:22:36;42.38;;;39.08;;
82255;SDS011;72145;34.434;-117.370;2023-09-18T00:23:12;41.55;;;38.63;;
82255;SDS011;72145;34.434;-117.370;2023-09-18T00:23:48;43.20;;;39.88;;
82255;SDS011;72145;34.434;-117.370;2023-09-18T00:24:21;43.45;;;40.25;;
82255;SDS011;72145;34.434;-117.370;2023-09-18T00:24:55;40.00;;;37.20;;
82255;SDS011;72145;34.434;-117.370;2023-09-18T00:25:34;39.60;;;36.70;;
82255;SDS011;72145;34.434;-117.370;2023-09-18T00:26:07;46.13;;;43.03;;
82255;SDS011;72145;34.434;-117.370;2023-09-18T00:26:47;45.10;;;42.03;;
82255;SDS011;72145;34.434;-117.370;2023-09-18T00:27:25;47.17;;;43.67;;
82255;SDS011;72145;34.434;-117.370;2023-09-18T00:28:01;49.22;;;45.78;;
82255;SDS011;72145;34.434;-117.370;2023-09-18T00:28:35;39.92;;;37.05;;
82255;SDS011;72145;34.434;-117.370;2023-09-18T00:29:11;37.28;;;34.47;;
82255;SDS011;72145;34.434;-117.370;2023-09-18T00:29:49;37.63;;;34.60;;
82255;SDS011;72145;34.434;-117.370;2023-09-18T00:30:28;35.50;;;32.80;;
82255;SDS011;72145;34.434;-117.370;2023-09-18T00:31:12;42.50;;;39.30;;
82255;SDS011;72145;34.434;-117.370;2023-09-18T00:31:49;40.05;;;36.28;;
82255;SDS011;72145;34.434;-117.370;2023-09-18T00:32:23;33.95;;;30.77;;
82255;SDS011;72145;34.434;-117.370;2023-09-18T00:32:59;36.65;;;32.97;;
82255;SDS011;72145;34.434;-117.370;2023-09-18T00:33:32;37.03;;;33.80;;
82255;SDS011;72145;34.434;-117.370;2023-09-18T00:34:05;33.38;;;30.30;;
82255;SDS011;72145;34.434;-117.370;2023-09-18T00:34:41;32.47;;;29.75;;
82255;SDS011;72145;34.434;-117.370;2023-09-18T00:35:14;34.55;;;31.23;;
82255;SDS011;72145;34.434;-117.370;2023-09-18T00:35:51;38.00;;;34.42;;
82255;SDS011;72145;34.434;-117.370;2023-09-18T00:36:31;42.85;;;39.65;;
82255;SDS011;72145;34.434;-117.370;2023-09-18T00:37:04;37.88;;;35.15;;
82255;SDS011;72145;34.434;-117.370;2023-09-18T00:37:37;43.42;;;40.33;;
82255;SDS011;72145;34.434;-117.370;2023-09-18T00:38:13;37.42;;;34.40;;
82255;SDS011;72145;34.434;-117.370;2023-09-18T00:38:47;38.90;;;35.92;;
82255;SDS011;72145;34.434;-117.370;2023-09-18T00:39:24;35.15;;;32.50;;
82255;SDS011;72145;34.434;-117.370;2023-09-18T00:39:58;38.88;;;35.55;;
82255;SDS011;72145;34.434;-117.370;2023-09-18T00:40:31;36.45;;;33.25;;
82255;SDS011;72145;34.434;-117.370;2023-09-18T00:41:47;40.28;;;37.22;;
82255;SDS011;72145;34.434;-117.370;2023-09-18T00:42:25;36.33;;;33.55;;
82255;SDS011;72145;34.434;-117.370;2023-09-18T00:42:59;37.28;;;34.40;;
82255;SDS011;72145;34.434;-117.370;2023-09-18T00:43:32;33.00;;;30.02;;
82255;SDS011;72145;34.434;-117.370;2023-09-18T00:44:06;31.35;;;28.65;;
82255;SDS011;72145;34.434;-117.370;2023-09-18T00:44:40;31.45;;;28.67;;
82255;SDS011;72145;34.434;-117.370;2023-09-18T00:45:16;32.60;;;29.75;;
82255;SDS011;72145;34.434;-117.370;2023-09-18T00:45:49;31.90;;;29.17;;
82255;SDS011;72145;34.434;-117.370;2023-09-18T00:46:23;32.05;;;29.35;;
82255;SDS011;72145;34.434;-117.370;2023-09-18T00:46:56;30.50;;;28.00;;
82255;SDS011;72145;34.434;-117.370;2023-09-18T00:47:33;28.98;;;26.60;;
82255;SDS011;72145;34.434;-117.370;2023-09-18T00:48:09;32.53;;;29.73;;
82255;SDS011;72145;34.434;-117.370;2023-09-18T00:48:43;30.92;;;28.42;;
82255;SDS011;72145;34.434;-117.370;2023-09-18T00:49:16;30.92;;;28.35;;
82255;SDS011;72145;34.434;-117.370;2023-09-18T00:49:52;31.92;;;29.40;;
82255;SDS011;72145;34.434;-117.370;2023-09-18T00:50:28;33.40;;;30.35;;
82255;SDS011;72145;34.434;-117.370;2023-09-18T00:51:02;34.58;;;31.58;;
82255;SDS011;72145;34.434;-117.370;2023-09-18T00:51:35;32.67;;;29.95;;
82255;SDS011;72145;34.434;-117.370;2023-09-18T00:52:11;31.10;;;28.45;;
82255;SDS011;72145;34.434;-117.370;2023-09-18T00:52:45;33.65;;;30.77;;
82255;SDS011;72145;34.434;-117.370;2023-09-18T00:53:20;32.67;;;29.75;;
82255;SDS011;72145;34.434;-117.370;2023-09-18T00:53:56;36.95;;;33.55;;
82255;SDS011;72145;34.434;-117.370;2023-09-18T00:54:29;37.85;;;34.63;;
82255;SDS011;72145;34.434;-117.370;2023-09-18T00:55:07;39.67;;;36.67;;
82255;SDS011;72145;34.434;-117.370;2023-09-18T00:55:41;44.55;;;41.28;;
82255;SDS011;72145;34.434;-117.370;2023-09-18T00:56:17;47.55;;;44.03;;
82255;SDS011;72145;34.434;-117.370;2023-09-18T00:56:55;47.42;;;44.08;;
82255;SDS011;72145;34.434;-117.370;2023-09-18T00:57:31;49.28;;;45.85;;
82255;SDS011;72145;34.434;-117.370;2023-09-18T00:58:08;47.55;;;44.28;;
82255;SDS011;72145;34.434;-117.370;2023-09-18T00:58:42;44.85;;;41.55;;
82255;SDS011;72145;34.434;-117.370;2023-09-18T00:59:17;45.72;;;42.22;;
82255;SDS011;72145;34.434;-117.370;2023-09-18T00:59:50;45.53;;;42.03;;
82255;SDS011;72145;34.434;-117.370;2023-09-18T01:00:26;46.47;;;43.20;;
82255;SDS011;72145;34.434;-117.370;2023-09-18T01:01:03;48.38;;;44.78;;
82255;SDS011;72145;34.434;-117.370;2023-09-18T01:01:37;46.05;;;42.85;;
82255;SDS011;72145;34.434;-117.370;2023-09-18T01:02:13;43.25;;;39.95;;
82255;SDS011;72145;34.434;-117.370;2023-09-18T01:02:46;46.65;;;43.45;;
82255;SDS011;72145;34.434;-117.370;2023-09-18T01:03:20;43.70;;;40.40;;
82255;SDS011;72145;34.434;-117.370;2023-09-18T01:03:55;42.05;;;38.85;;
82255;SDS011;72145;34.434;-117.370;2023-09-18T01:04:30;39.35;;;36.45;;
82255;SDS011;72145;34.434;-117.370;2023-09-18T01:05:08;38.88;;;35.78;;
82255;SDS011;72145;34.434;-117.370;2023-09-18T01:05:42;36.45;;;33.58;;
82255;SDS011;72145;34.434;-117.370;2023-09-18T01:06:15;36.50;;;33.70;;
82255;SDS011;72145;34.434;-117.370;2023-09-18T01:06:49;35.45;;;32.72;;
82255;SDS011;72145;34.434;-117.370;2023-09-18T01:07:23;37.47;;;34.40;;
82255;SDS011;72145;34.434;-117.370;2023-09-18T01:08:01;38.80;;;35.72;;
82255;SDS011;72145;34.434;-117.370;2023-09-18T01:08:37;35.20;;;32.17;;
82255;SDS011;72145;34.434;-117.370;2023-09-18T01:09:10;35.30;;;32.63;;
82255;SDS011;72145;34.434;-117.370;2023-09-18T01:09:47;34.20;;;31.58;;
82255;SDS011;72145;34.434;-117.370;2023-09-18T01:10:21;35.92;;;33.10;;
82255;SDS011;72145;34.434;-117.370;2023-09-18T01:11:09;35.88;;;32.90;;
82255;SDS011;72145;34.434;-117.370;2023-09-18T01:12:00;36.50;;;33.47;;
82255;SDS011;72145;34.434;-117.370;2023-09-18T01:13:11;41.88;;;38.58;;
82255;SDS011;72145;34.434;-117.370;2023-09-18T01:13:57;44.60;;;41.17;;
82255;SDS011;72145;34.434;-117.370;2023-09-18T01:14:44;42.58;;;39.17;;
82255;SDS011;72145;34.434;-117.370;2023-09-18T01:15:30;44.20;;;40.67;;
82255;SDS011;72145;34.434;-117.370;2023-09-18T01:16:18;44.63;;;41.33;;
82255;SDS011;72145;34.434;-117.370;2023-09-18T01:16:58;45.72;;;42.30;;
82255;SDS011;72145;34.434;-117.370;2023-09-18T01:17:37;44.97;;;41.75;;
82255;SDS011;72145;34.434;-117.370;2023-09-18T01:18:14;46.83;;;43.28;;
82255;SDS011;72145;34.434;-117.370;2023-09-18T01:18:49;46.90;;;43.58;;
82255;SDS011;72145;34.434;-117.370;2023-09-18T01:19:45;46.13;;;42.67;;
82255;SDS011;72145;34.434;-117.370;2023-09-18T01:20:19;33.55;;;30.60;;
82255;SDS011;72145;34.434;-117.370;2023-09-18T01:20:55;36.67;;;33.22;;
82255;SDS011;72145;34.434;-117.370;2023-09-18T01:21:29;34.22;;;31.15;;
82255;SDS011;72145;34.434;-117.370;2023-09-18T01:22:05;36.67;;;32.90;;
82255;SDS011;72145;34.434;-117.370;2023-09-18T01:22:40;35.65;;;32.67;;
82255;SDS011;72145;34.434;-117.370;2023-09-18T01:23:13;38.00;;;34.92;;
82255;SDS011;72145;34.434;-117.370;2023-09-18T01:23:49;39.95;;;36.70;;
82255;SDS011;72145;34.434;-117.370;2023-09-18T01:24:24;38.80;;;35.50;;
82255;SDS011;72145;34.434;-117.370;2023-09-18T01:25:00;39.08;;;35.60;;
82255;SDS011;72145;34.434;-117.370;2023-09-18T01:25:33;42.67;;;39.17;;
82255;SDS011;72145;34.434;-117.370;2023-09-18T01:26:07;38.95;;;35.72;;
82255;SDS011;72145;34.434;-117.370;2023-09-18T01:26:41;37.55;;;34.42;;
82255;SDS011;72145;34.434;-117.370;2023-09-18T01:27:37;40.20;;;36.83;;
82255;SDS011;72145;34.434;-117.370;2023-09-18T01:28:11;39.50;;;36.28;;
82255;SDS011;72145;34.434;-117.370;2023-09-18T01:28:44;40.83;;;37.55;;
82255;SDS011;72145;34.434;-117.370;2023-09-18T01:29:18;39.42;;;36.15;;
82255;SDS011;72145;34.434;-117.370;2023-09-18T01:29:51;42.35;;;38.67;;
82255;SDS011;72145;34.434;-117.370;2023-09-18T01:30:25;38.88;;;35.75;;
82255;SDS011;72145;34.434;-117.370;2023-09-18T01:30:59;38.40;;;35.17;;
82255;SDS011;72145;34.434;-117.370;2023-09-18T01:31:32;40.15;;;36.40;;
82255;SDS011;72145;34.434;-117.370;2023-09-18T01:32:08;33.08;;;30.05;;
82255;SDS011;72145;34.434;-117.370;2023-09-18T01:32:44;33.70;;;30.70;;
82255;SDS011;72145;34.434;-117.370;2023-09-18T01:33:21;36.20;;;33.17;;
82255;SDS011;72145;34.434;-117.370;2023-09-18T01:33:56;43.63;;;40.00;;
82255;SDS011;72145;34.434;-117.370;2023-09-18T01:34:33;42.75;;;39.45;;
82255;SDS011;72145;34.434;-117.370;2023-09-18T01:35:09;48.42;;;44.72;;
82255;SDS011;72145;34.434;-117.370;2023-09-18T01:35:44;49.50;;;45.85;;
82255;SDS011;72145;34.434;-117.370;2023-09-18T01:36:20;51.58;;;47.85;;
82255;SDS011;72145;34.434;-117.370;2023-09-18T01:36:55;50.10;;;45.90;;
82255;SDS011;72145;34.434;-117.370;2023-09-18T01:37:30;49.97;;;46.17;;
82255;SDS011;72145;34.434;-117.370;2023-09-18T01:38:10;52.50;;;48.60;;
82255;SDS011;72145;34.434;-117.370;2023-09-18T01:38:44;49.88;;;46.17;;
82255;SDS011;72145;34.434;-117.370;2023-09-18T01:39:21;50.47;;;46.65;;
82255;SDS011;72145;34.434;-117.370;2023-09-18T01:39:55;54.08;;;49.90;;
82255;SDS011;72145;34.434;-117.370;2023-09-18T01:40:31;47.58;;;43.72;;
82255;SDS011;72145;34.434;-117.370;2023-09-18T01:41:05;48.30;;;44.50;;
82255;SDS011;72145;34.434;-117.370;2023-09-18T01:41:39;43.85;;;40.17;;
82255;SDS011;72145;34.434;-117.370;2023-09-18T01:42:13;40.42;;;36.83;;
82255;SDS011;72145;34.434;-117.370;2023-09-18T01:42:48;37.53;;;34.25;;
82255;SDS011;72145;34.434;-117.370;2023-09-18T01:43:21;42.17;;;38.50;;
82255;SDS011;72145;34.434;-117.370;2023-09-18T01:43:58;45.17;;;41.47;;
82255;SDS011;72145;34.434;-117.370;2023-09-18T01:44:31;46.22;;;42.30;;
82255;SDS011;72145;34.434;-117.370;2023-09-18T01:45:06;44.72;;;40.97;;
82255;SDS011;72145;34.434;-117.370;2023-09-18T01:45:40;43.33;;;39.58;;
82255;SDS011;72145;34.434;-117.370;2023-09-18T01:46:16;46.88;;;42.47;;
82255;SDS011;72145;34.434;-117.370;2023-09-18T01:46:51;45.97;;;42.03;;
82255;SDS011;72145;34.434;-117.370;2023-09-18T01:47:28;44.20;;;40.20;;
82255;SDS011;72145;34.434;-117.370;2023-09-18T01:48:03;45.80;;;41.92;;
82255;SDS011;72145;34.434;-117.370;2023-09-18T01:48:44;44.35;;;40.30;;
82255;SDS011;72145;34.434;-117.370;2023-09-18T01:49:26;49.90;;;45.70;;
82255;SDS011;72145;34.434;-117.370;2023-09-18T01:50:04;46.28;;;42.30;;
82255;SDS011;72145;34.434;-117.370;2023-09-18T01:50:38;46.00;;;41.92;;
82255;SDS011;72145;34.434;-117.370;2023-09-18T01:51:16;48.80;;;43.60;;
82255;SDS011;72145;34.434;-117.370;2023-09-18T01:51:49;39.55;;;35.70;;
82255;SDS011;72145;34.434;-117.370;2023-09-18T01:52:24;37.40;;;33.72;;
82255;SDS011;72145;34.434;-117.370;2023-09-18T01:53:08;39.20;;;35.47;;
82255;SDS011;72145;34.434;-117.370;2023-09-18T01:53:42;41.85;;;37.85;;
82255;SDS011;72145;34.434;-117.370;2023-09-18T01:54:19;44.35;;;40.05;;
82255;SDS011;72145;34.434;-117.370;2023-09-18T01:54:55;51.85;;;47.35;;
82255;SDS011;72145;34.434;-117.370;2023-09-18T01:55:43;45.20;;;41.08;;
82255;SDS011;72145;34.434;-117.370;2023-09-18T01:56:16;44.40;;;40.22;;
82255;SDS011;72145;34.434;-117.370;2023-09-18T01:56:50;45.10;;;40.92;;
82255;SDS011;72145;34.434;-117.370;2023-09-18T01:57:23;46.88;;;42.65;;
82255;SDS011;72145;34.434;-117.370;2023-09-18T01:57:58;47.08;;;42.75;;
82255;SDS011;72145;34.434;-117.370;2023-09-18T01:58:32;43.47;;;39.33;;
82255;SDS011;72145;34.434;-117.370;2023-09-18T01:59:06;47.00;;;42.60;;
82255;SDS011;72145;34.434;-117.370;2023-09-18T01:59:39;46.75;;;42.65;;
82255;SDS011;72145;34.434;-117.370;2023-09-18T02:00:14;46.95;;;42.53;;
82255;SDS011;72145;34.434;-117.370;2023-09-18T02:00:49;46.08;;;41.70;;
82255;SDS011;72145;34.434;-117.370;2023-09-18T02:01:22;47.08;;;42.97;;
82255;SDS011;72145;34.434;-117.370;2023-09-18T02:01:56;45.63;;;41.17;;
82255;SDS011;72145;34.434;-117.370;2023-09-18T02:02:30;45.13;;;40.70;;
82255;SDS011;72145;34.434;-117.370;2023-09-18T02:03:13;42.97;;;38.85;;
82255;SDS011;72145;34.434;-117.370;2023-09-18T02:04:10;42.35;;;38.15;;
82255;SDS011;72145;34.434;-117.370;2023-09-18T02:05:06;41.72;;;37.67;;
82255;SDS011;72145;34.434;-117.370;2023-09-18T02:05:41;47.33;;;42.83;;
82255;SDS011;72145;34.434;-117.370;2023-09-18T02:06:17;51.17;;;46.60;;
82255;SDS011;72145;34.434;-117.370;2023-09-18T02:06:51;49.30;;;44.70;;
82255;SDS011;72145;34.434;-117.370;2023-09-18T02:07:24;51.75;;;47.10;;
82255;SDS011;72145;34.434;-117.370;2023-09-18T02:07:58;50.75;;;46.25;;
82255;SDS011;72145;34.434;-117.370;2023-09-18T02:08:32;52.47;;;48.05;;
82255;SDS011;72145;34.434;-117.370;2023-09-18T02:09:11;54.63;;;49.92;;
82255;SDS011;72145;34.434;-117.370;2023-09-18T02:09:44;56.08;;;51.40;;
82255;SDS011;72145;34.434;-117.370;2023-09-18T02:10:17;52.58;;;48.00;;
82255;SDS011;72145;34.434;-117.370;2023-09-18T02:10:51;55.28;;;50.53;;
82255;SDS011;72145;34.434;-117.370;2023-09-18T02:11:24;56.95;;;52.22;;
82255;SDS011;72145;34.434;-117.370;2023-09-18T02:11:58;57.65;;;52.72;;
82255;SDS011;72145;34.434;-117.370;2023-09-18T02:12:31;55.05;;;50.15;;
82255;SDS011;72145;34.434;-117.370;2023-09-18T02:13:04;48.35;;;43.67;;
82255;SDS011;72145;34.434;-117.370;2023-09-18T02:13:38;49.78;;;45.03;;
82255;SDS011;72145;34.434;-117.370;2023-09-18T02:14:11;45.60;;;41.28;;
82255;SDS011;72145;34.434;-117.370;2023-09-18T02:14:44;45.10;;;40.88;;
82255;SDS011;72145;34.434;-117.370;2023-09-18T02:15:18;39.83;;;35.88;;
82255;SDS011;72145;34.434;-117.370;2023-09-18T02:15:51;42.45;;;38.33;;
82255;SDS011;72145;34.434;-117.370;2023-09-18T02:16:27;45.83;;;41.65;;
82255;SDS011;72145;34.434;-117.370;2023-09-18T02:17:00;48.22;;;43.85;;
82255;SDS011;72145;34.434;-117.370;2023-09-18T02:17:38;49.75;;;45.10;;
82255;SDS011;72145;34.434;-117.370;2023-09-18T02:18:11;47.33;;;42.88;;
82255;SDS011;72145;34.434;-117.370;2023-09-18T02:18:45;53.83;;;48.92;;
82255;SDS011;72145;34.434;-117.370;2023-09-18T02:19:19;50.33;;;45.90;;
82255;SDS011;72145;34.434;-117.370;2023-09-18T02:19:52;46.53;;;42.25;;
82255;SDS011;72145;34.434;-117.370;2023-09-18T02:20:25;50.03;;;45.65;;
82255;SDS011;72145;34.434;-117.370;2023-09-18T02:20:59;49.08;;;44.67;;
82255;SDS011;72145;34.434;-117.370;2023-09-18T02:21:32;49.00;;;44.47;;
82255;SDS011;72145;34.434;-117.370;2023-09-18T02:22:06;48.95;;;44.83;;
82255;SDS011;72145;34.434;-117.370;2023-09-18T02:22:39;49.40;;;45.13;;
82255;SDS011;72145;34.434;-117.370;2023-09-18T02:23:12;41.10;;;37.38;;
82255;SDS011;72145;34.434;-117.370;2023-09-18T02:23:49;41.75;;;37.83;;
82255;SDS011;72145;34.434;-117.370;2023-09-18T02:24:44;42.78;;;38.85;;
82255;SDS011;72145;34.434;-117.370;2023-09-18T02:25:17;36.83;;;33.28;;
82255;SDS011;72145;34.434;-117.370;2023-09-18T02:25:59;40.03;;;36.03;;
82255;SDS011;72145;34.434;-117.370;2023-09-18T02:26:33;41.00;;;37.13;;
82255;SDS011;72145;34.434;-117.370;2023-09-18T02:27:12;43.38;;;39.25;;
82255;SDS011;72145;34.434;-117.370;2023-09-18T02:27:49;43.05;;;39.00;;
82255;SDS011;72145;34.434;-117.370;2023-09-18T02:28:29;46.03;;;41.80;;
82255;SDS011;72145;34.434;-117.370;2023-09-18T02:29:09;48.67;;;43.97;;
82255;SDS011;72145;34.434;-117.370;2023-09-18T02:29:47;49.15;;;44.75;;
82255;SDS011;72145;34.434;-117.370;2023-09-18T02:30:22;60.78;;;55.80;;
82255;SDS011;72145;34.434;-117.370;2023-09-18T02:30:57;59.33;;;54.30;;
82255;SDS011;72145;34.434;-117.370;2023-09-18T02:31:33;62.63;;;57.63;;
82255;SDS011;72145;34.434;-117.370;2023-09-18T02:32:11;59.67;;;54.78;;
82255;SDS011;72145;34.434;-117.370;2023-09-18T02:32:48;57.03;;;52.40;;
82255;SDS011;72145;34.434;-117.370;2023-09-18T02:33:22;59.25;;;54.33;;
82255;SDS011;72145;34.434;-117.370;2023-09-18T02:33:56;61.67;;;56.40;;
82255;SDS011;72145;34.434;-117.370;2023-09-18T02:34:29;61.08;;;55.97;;
82255;SDS011;72145;34.434;-117.370;2023-09-18T02:35:08;59.55;;;54.63;;
82255;SDS011;72145;34.434;-117.370;2023-09-18T02:35:45;58.00;;;53.17;;
82255;SDS011;72145;34.434;-117.370;2023-09-18T02:36:21;43.67;;;39.45;;
82255;SDS011;72145;34.434;-117.370;2023-09-18T02:36:55;45.42;;;41.20;;
82255;SDS011;72145;34.434;-117.370;2023-09-18T02:37:28;48.03;;;43.70;;
82255;SDS011;72145;34.434;-117.370;2023-09-18T02:38:01;46.58;;;42.17;;
82255;SDS011;72145;34.434;-117.370;2023-09-18T02:38:35;50.65;;;46.03;;
82255;SDS011;72145;34.434;-117.370;2023-09-18T02:39:08;59.13;;;54.17;;
82255;SDS011;72145;34.434;-117.370;2023-09-18T02:39:44;60.55;;;55.60;;
82255;SDS011;72145;34.434;-117.370;2023-09-18T02:40:17;56.05;;;51.33;;
82255;SDS011;72145;34.434;-117.370;2023-09-18T02:40:54;60.60;;;55.53;;
82255;SDS011;72145;34.434;-117.370;2023-09-18T02:41:27;59.75;;;54.60;;
82255;SDS011;72145;34.434;-117.370;2023-09-18T02:42:00;64.30;;;59.03;;
82255;SDS011;72145;34.434;-117.370;2023-09-18T02:42:34;58.30;;;53.17;;
82255;SDS011;72145;34.434;-117.370;2023-09-18T02:43:07;60.30;;;55.30;;
82255;SDS011;72145;34.434;-117.370;2023-09-18T02:43:43;62.95;;;57.80;;
82255;SDS011;72145;34.434;-117.370;2023-09-18T02:44:16;63.22;;;58.10;;
82255;SDS011;72145;34.434;-117.370;2023-09-18T02:44:50;63.20;;;57.78;;
82255;SDS011;72145;34.434;-117.370;2023-09-18T02:45:27;62.58;;;57.33;;
82255;SDS011;72145;34.434;-117.370;2023-09-18T02:46:03;56.42;;;51.42;;
82255;SDS011;72145;34.434;-117.370;2023-09-18T02:46:38;55.38;;;50.38;;
82255;SDS011;72145;34.434;-117.370;2023-09-18T02:47:15;52.80;;;47.80;;
82255;SDS011;72145;34.434;-117.370;2023-09-18T02:47:50;56.20;;;51.17;;
82255;SDS011;72145;34.434;-117.370;2023-09-18T02:48:23;63.00;;;57.40;;
82255;SDS011;72145;34.434;-117.370;2023-09-18T02:48:57;61.05;;;55.72;;
82255;SDS011;72145;34.434;-117.370;2023-09-18T02:49:30;59.20;;;53.83;;
82255;SDS011;72145;34.434;-117.370;2023-09-18T02:50:08;60.42;;;54.83;;
82255;SDS011;72145;34.434;-117.370;2023-09-18T02:50:46;64.80;;;59.28;;
82255;SDS011;72145;34.434;-117.370;2023-09-18T02:51:19;66.72;;;61.03;;
82255;SDS011;72145;34.434;-117.370;2023-09-18T02:51:53;68.25;;;62.55;;
82255;SDS011;72145;34.434;-117.370;2023-09-18T02:52:29;66.78;;;61.17;;
82255;SDS011;72145;34.434;-117.370;2023-09-18T02:53:39;68.93;;;63.00;;
82255;SDS011;72145;34.434;-117.370;2023-09-18T02:54:22;74.13;;;67.68;;
82255;SDS011;72145;34.434;-117.370;2023-09-18T02:54:55;69.68;;;63.65;;
82255;SDS011;72145;34.434;-117.370;2023-09-18T02:55:29;66.45;;;60.65;;
82255;SDS011;72145;34.434;-117.370;2023-09-18T02:56:02;70.00;;;64.07;;
82255;SDS011;72145;34.434;-117.370;2023-09-18T02:56:36;71.60;;;65.47;;
82255;SDS011;72145;34.434;-117.370;2023-09-18T02:57:13;76.22;;;69.90;;
82255;SDS011;72145;34.434;-117.370;2023-09-18T02:57:48;72.57;;;66.28;;
82255;SDS011;72145;34.434;-117.370;2023-09-18T02:58:21;61.95;;;56.28;;
82255;SDS011;72145;34.434;-117.370;2023-09-18T02:58:59;61.20;;;55.42;;
82255;SDS011;72145;34.434;-117.370;2023-09-18T02:59:33;62.80;;;57.08;;
82255;SDS011;72145;34.434;-117.370;2023-09-18T03:00:06;65.20;;;59.30;;
82255;SDS011;72145;34.434;-117.370;2023-09-18T03:00:41;61.13;;;55.40;;
82255;SDS011;72145;34.434;-117.370;2023-09-18T03:01:15;59.17;;;53.53;;
82255;SDS011;72145;34.434;-117.370;2023-09-18T03:01:49;67.15;;;61.08;;
82255;SDS011;72145;34.434;-117.370;2023-09-18T03:02:23;73.35;;;67.15;;
82255;SDS011;72145;34.434;-117.370;2023-09-18T03:02:56;73.20;;;66.95;;
82255;SDS011;72145;34.434;-117.370;2023-09-18T03:03:33;75.70;;;69.47;;
82255;SDS011;72145;34.434;-117.370;2023-09-18T03:04:06;77.20;;;70.88;;
82255;SDS011;72145;34.434;-117.370;2023-09-18T03:04:40;81.65;;;75.35;;
82255;SDS011;72145;34.434;-117.370;2023-09-18T03:05:13;87.53;;;80.97;;
82255;SDS011;72145;34.434;-117.370;2023-09-18T03:05:48;87.65;;;80.68;;
82255;SDS011;72145;34.434;-117.370;2023-09-18T03:06:23;78.28;;;71.82;;
82255;SDS011;72145;34.434;-117.370;2023-09-18T03:06:56;85.88;;;79.25;;
82255;SDS011;72145;34.434;-117.370;2023-09-18T03:07:29;85.03;;;78.18;;
82255;SDS011;72145;34.434;-117.370;2023-09-18T03:08:07;87.50;;;80.90;;
82255;SDS011;72145;34.434;-117.370;2023-09-18T03:08:42;87.15;;;80.68;;
82255;SDS011;72145;34.434;-117.370;2023-09-18T03:09:16;86.60;;;80.03;;
82255;SDS011;72145;34.434;-117.370;2023-09-18T03:09:51;86.10;;;79.10;;
82255;SDS011;72145;34.434;-117.370;2023-09-18T03:10:27;87.88;;;81.35;;
82255;SDS011;72145;34.434;-117.370;2023-09-18T03:11:00;90.57;;;83.72;;
82255;SDS011;72145;34.434;-117.370;2023-09-18T03:11:35;80.85;;;74.30;;
82255;SDS011;72145;34.434;-117.370;2023-09-18T03:12:11;83.78;;;77.07;;
82255;SDS011;72145;34.434;-117.370;2023-09-18T03:12:47;71.93;;;65.80;;
82255;SDS011;72145;34.434;-117.370;2023-09-18T03:13:25;72.00;;;65.60;;
82255;SDS011;72145;34.434;-117.370;2023-09-18T03:14:02;73.35;;;67.15;;
82255;SDS011;72145;34.434;-117.370;2023-09-18T03:14:36;74.13;;;67.90;;
82255;SDS011;72145;34.434;-117.370;2023-09-18T03:15:18;72.47;;;66.32;;
82255;SDS011;72145;34.434;-117.370;2023-09-18T03:15:59;76.78;;;70.38;;
82255;SDS011;72145;34.434;-117.370;2023-09-18T03:16:33;81.25;;;74.47;;
82255;SDS011;72145;34.434;-117.370;2023-09-18T03:17:06;80.55;;;73.72;;
82255;SDS011;72145;34.434;-117.370;2023-09-18T03:17:39;75.90;;;69.35;;
82255;SDS011;72145;34.434;-117.370;2023-09-18T03:18:14;83.22;;;76.50;;
82255;SDS011;72145;34.434;-117.370;2023-09-18T03:18:48;79.82;;;73.22;;
82255;SDS011;72145;34.434;-117.370;2023-09-18T03:19:21;81.93;;;75.22;;
82255;SDS011;72145;34.434;-117.370;2023-09-18T03:19:56;99.03;;;91.80;;
82255;SDS011;72145;34.434;-117.370;2023-09-18T03:20:32;90.82;;;83.78;;
82255;SDS011;72145;34.434;-117.370;2023-09-18T03:21:10;89.95;;;82.85;;
82255;SDS011;72145;34.434;-117.370;2023-09-18T03:21:55;92.55;;;85.55;;